Saga Sea — LNSK — position and weather

sailwx.info

Track history (hours):
 
Tides and Currents Weather Stations Pressure Air Temp Water Temp Dewpoint Dewpoint Depression Visibility Wind Speed Wind Dir Waves Ship Positions

Saga Sea

Last reported at 2017-Nov-25 07:33 UTC. Time now 2018-Jan-23 23:38 UTC.
Position N 27°48' W 015°17'.
Warning: this ship's position is 59 days out of date.

Length 92 m; draft 8.2 m.

Type: Fishing. MMSI: 259539000.

Date/timePositionNaut miles runAvg speedWind from/ knotsBaromVisibWave heightAir tempDewpointWater temp
2017-Nov-25 07:33N 27°48' W 015°17'112.9
2017-Nov-25 07:27N 27°49' W 015°16'612.6
2017-Nov-25 07:00N 27°55' W 015°16'612.4
2017-Nov-25 06:30N 28°01' W 015°17'612.2
2017-Nov-25 06:00N 28°06' W 015°21'2 3.8
2017-Nov-25 05:31N 28°07' W 015°22'1 1.6
2017-Nov-25 05:00N 28°07' W 015°21'3 6.3
2017-Nov-25 04:30N 28°10' W 015°20'612.1
2017-Nov-25 04:01N 28°16' W 015°19'0 0.5
2017-Nov-25 03:29N 28°16' W 015°20'0 0.1
2017-Nov-25 03:00N 28°16' W 015°20'0 1.0
2017-Nov-25 02:30N 28°16' W 015°20'612.1
2017-Nov-25 02:01N 28°10' W 015°20'4 8.3
2017-Nov-25 01:30N 28°08' W 015°25'1 2.5
2017-Nov-25 00:59N 28°09' W 015°25'0 0.0
2017-Nov-25 00:29N 28°09' W 015°25'0 0.0
2017-Nov-24 23:59N 28°09' W 015°25'0 0.0
2017-Nov-24 23:17N 28°09' W 015°25'0 0.0
2017-Nov-24 22:59N 28°09' W 015°25'0 0.0
2017-Nov-24 22:29N 28°09' W 015°25'0 0.0
2017-Nov-24 21:59N 28°09' W 015°25'0 0.0
2017-Nov-24 21:20N 28°09' W 015°25'0 0.0
2017-Nov-24 20:50N 28°09' W 015°25'0 0.0
2017-Nov-24 20:20N 28°09' W 015°25'0 0.0
2017-Nov-24 19:50N 28°09' W 015°25'0 0.0
2017-Nov-24 19:23N 28°09' W 015°25'0 0.0
2017-Nov-24 18:53N 28°09' W 015°25'0 0.0
2017-Nov-24 18:30N 28°09' W 015°25'0 0.0
2017-Nov-24 18:00N 28°09' W 015°25'0 0.0
2017-Nov-24 17:30N 28°09' W 015°25'0 0.0
2017-Nov-24 17:00N 28°09' W 015°25'0 0.0
2017-Nov-24 16:30N 28°09' W 015°25'0 0.0
2017-Nov-24 16:00N 28°09' W 015°25'0 0.0
2017-Nov-24 15:30N 28°09' W 015°25'0 0.0
2017-Nov-24 15:00N 28°09' W 015°25'0 0.0
2017-Nov-24 14:30N 28°09' W 015°25'0 0.0
2017-Nov-24 14:00N 28°09' W 015°25'0 0.0
2017-Nov-24 13:31N 28°09' W 015°25'0 0.0
2017-Nov-24 13:00N 28°09' W 015°25'0 0.0
2017-Nov-24 12:30N 28°09' W 015°25'0 0.0
2017-Nov-24 12:00N 28°09' W 015°25'0 0.0
2017-Nov-24 11:30N 28°09' W 015°25'0 0.0
2017-Nov-24 11:00N 28°09' W 015°25'0 0.0
2017-Nov-24 10:30N 28°09' W 015°25'0 0.0
2017-Nov-24 10:00N 28°09' W 015°25'0 0.0
2017-Nov-24 09:30N 28°09' W 015°25'0 0.1
2017-Nov-24 09:01N 28°09' W 015°25'2 3.0
2017-Nov-24 08:30N 28°07' W 015°24'2 4.9
2017-Nov-24 08:00N 28°07' W 015°22'1 1.9
2017-Nov-24 07:30N 28°07' W 015°21'0 1.0
2017-Nov-24 07:00N 28°07' W 015°20'0 0.6
2017-Nov-24 06:30N 28°07' W 015°20'1 1.2
2017-Nov-24 06:00N 28°07' W 015°20'510.0
2017-Nov-24 05:30N 28°09' W 015°14'4 8.3
2017-Nov-24 05:00N 28°13' W 015°13'2 3.2
2017-Nov-24 04:30N 28°14' W 015°13'4 7.2
2017-Nov-24 04:00N 28°15' W 015°17'0 0.5
2017-Nov-24 03:30N 28°15' W 015°17'0 1.0
2017-Nov-24 03:00N 28°15' W 015°18'1 1.1
2017-Nov-24 02:30N 28°15' W 015°19'0 1.0
2017-Nov-24 02:00N 28°15' W 015°19'1 1.4
2017-Nov-24 01:30N 28°16' W 015°20'5 9.7
2017-Nov-24 01:00N 28°21' W 015°20'2 4.4
2017-Nov-24 00:30N 28°22' W 015°18'612.6
2017-Nov-24 00:00N 28°16' W 015°18'612.6
2017-Nov-23 23:30N 28°09' W 015°19'510.8
2017-Nov-23 23:00N 28°07' W 015°24'2 4.0
2017-Nov-23 22:30N 28°09' W 015°25'0 0.1
2017-Nov-23 22:00N 28°09' W 015°25'0 0.0
2017-Nov-23 21:30N 28°09' W 015°25'0 0.0
2017-Nov-23 21:00N 28°09' W 015°25'0 0.0
2017-Nov-23 20:30N 28°09' W 015°25'0 0.0
2017-Nov-23 20:00N 28°09' W 015°25'0 0.0
2017-Nov-23 19:30N 28°09' W 015°25'0 0.0
2017-Nov-23 19:00N 28°09' W 015°25'0 0.0
2017-Nov-23 18:30N 28°09' W 015°25'0 0.0
2017-Nov-23 18:00N 28°09' W 015°25'0 0.0
2017-Nov-23 17:30N 28°09' W 015°25'0 0.0
2017-Nov-23 17:00N 28°09' W 015°25'0 0.0
2017-Nov-23 16:30N 28°09' W 015°25'0 0.0
2017-Nov-23 16:00N 28°09' W 015°25'0 0.0
2017-Nov-23 15:30N 28°09' W 015°25'0 0.0
2017-Nov-23 15:00N 28°09' W 015°25'0 0.0
2017-Nov-23 14:30N 28°09' W 015°25'0 0.0
2017-Nov-23 14:00N 28°09' W 015°25'0 0.0
2017-Nov-23 13:30N 28°09' W 015°25'0 0.0
2017-Nov-23 13:00N 28°09' W 015°25'0 0.0
2017-Nov-23 12:30N 28°09' W 015°25'0 0.0
2017-Nov-23 12:00N 28°09' W 015°25'0 0.0
2017-Nov-23 11:30N 28°09' W 015°25'0 0.0
2017-Nov-23 11:00N 28°09' W 015°25'0 0.0
2017-Nov-23 10:30N 28°09' W 015°25'0 0.0
2017-Nov-23 10:00N 28°09' W 015°25'0 0.0
2017-Nov-23 09:30N 28°09' W 015°25'0 0.0
2017-Nov-23 09:00N 28°09' W 015°25'0 0.0
2017-Nov-23 08:30N 28°09' W 015°25'0 0.0
2017-Nov-23 08:00N 28°09' W 015°25'0 0.0
2017-Nov-23 07:30N 28°09' W 015°25'0 0.0
2017-Nov-23 07:00N 28°09' W 015°25'0 0.0
2017-Nov-23 06:30N 28°09' W 015°25'0 0.0
2017-Nov-23 06:00N 28°09' W 015°25'0 0.0
2017-Nov-23 05:30N 28°09' W 015°25'0 0.0
2017-Nov-23 05:00N 28°09' W 015°25'0 0.0
2017-Nov-23 04:30N 28°09' W 015°25'0 0.0
2017-Nov-23 04:00N 28°09' W 015°25'0 0.0
2017-Nov-23 03:30N 28°09' W 015°25'0 0.0
2017-Nov-23 03:00N 28°09' W 015°25'0 0.0
2017-Nov-23 02:30N 28°09' W 015°25'0 0.0
2017-Nov-23 02:00N 28°09' W 015°25'0 0.0
2017-Nov-23 01:30N 28°09' W 015°25'0 0.0
2017-Nov-23 01:00N 28°09' W 015°25'0 0.0
2017-Nov-23 00:30N 28°09' W 015°25'0 0.0
2017-Nov-23 00:00N 28°09' W 015°25'0 0.0
2017-Nov-22 23:30N 28°09' W 015°25'0 0.0
2017-Nov-22 23:00N 28°09' W 015°25'0 0.0
2017-Nov-22 22:30N 28°09' W 015°25'0 0.0
2017-Nov-22 22:00N 28°09' W 015°25'0 0.0
2017-Nov-22 21:30N 28°09' W 015°25'0 0.0
2017-Nov-22 21:00N 28°09' W 015°25'0 0.0
2017-Nov-22 20:30N 28°09' W 015°25'0 0.0
2017-Nov-22 20:00N 28°09' W 015°25'0 0.0
2017-Nov-22 19:30N 28°09' W 015°25'  
2017-Nov-20 00:30N 28°09' W 015°25'0 0.0
2017-Nov-20 00:00N 28°09' W 015°25'0 0.0
2017-Nov-19 23:30N 28°09' W 015°25'0 0.0
2017-Nov-19 23:00N 28°09' W 015°25'0 0.0
2017-Nov-19 22:30N 28°09' W 015°25'0 0.0
2017-Nov-19 22:00N 28°09' W 015°25'0 0.0
2017-Nov-19 21:30N 28°09' W 015°25'0 0.0
2017-Nov-19 21:00N 28°09' W 015°25'0 0.0
2017-Nov-19 20:30N 28°09' W 015°25'0 0.0
2017-Nov-19 19:51N 28°09' W 015°25'0 0.0
2017-Nov-19 19:21N 28°09' W 015°25'0 0.0
2017-Nov-19 18:54N 28°09' W 015°25'0 0.0
2017-Nov-19 18:24N 28°09' W 015°25'0 0.0
2017-Nov-19 17:54N 28°09' W 015°25'0 0.0
2017-Nov-19 17:24N 28°09' W 015°25'0 0.0
2017-Nov-19 16:54N 28°09' W 015°25'0 0.0
2017-Nov-19 16:24N 28°09' W 015°25'0 0.0
2017-Nov-19 15:57N 28°09' W 015°25'0 0.0
2017-Nov-19 15:27N 28°09' W 015°25'0 0.0
2017-Nov-19 14:57N 28°09' W 015°25'0 0.0
2017-Nov-19 14:27N 28°09' W 015°25'0 0.0
2017-Nov-19 13:42N 28°09' W 015°25'0 0.0
2017-Nov-19 13:27N 28°09' W 015°25'0 0.0
2017-Nov-19 13:00N 28°09' W 015°25'0 0.0
2017-Nov-19 12:30N 28°09' W 015°25'0 0.0
2017-Nov-19 12:00N 28°09' W 015°25'0 0.0
2017-Nov-19 11:30N 28°09' W 015°25'0 0.0
2017-Nov-19 11:00N 28°09' W 015°25'0 0.0
2017-Nov-19 10:30N 28°09' W 015°25'0 0.0
2017-Nov-19 10:00N 28°09' W 015°25'0 0.0
2017-Nov-19 09:30N 28°09' W 015°25'0 0.0
2017-Nov-19 08:48N 28°09' W 015°25'0 0.0
2017-Nov-19 08:30N 28°09' W 015°25'0 0.0
2017-Nov-19 08:00N 28°09' W 015°25'0 0.0
2017-Nov-19 07:30N 28°09' W 015°25'0 0.0
2017-Nov-19 07:00N 28°09' W 015°25'0 0.0
2017-Nov-19 06:21N 28°09' W 015°25'0 0.0
2017-Nov-19 05:51N 28°09' W 015°25'0 0.0
2017-Nov-19 05:24N 28°09' W 015°25'0 0.0
2017-Nov-19 04:54N 28°09' W 015°25'0 0.0
2017-Nov-19 04:24N 28°09' W 015°25'0 0.0
2017-Nov-19 03:54N 28°09' W 015°25'0 0.0
2017-Nov-19 03:24N 28°09' W 015°25'0 0.0
2017-Nov-19 02:54N 28°09' W 015°25'0 0.0
2017-Nov-19 02:24N 28°09' W 015°25'0 0.0
2017-Nov-19 01:57N 28°09' W 015°25'0 0.0
2017-Nov-19 01:27N 28°09' W 015°25'0 0.0
2017-Nov-19 00:57N 28°09' W 015°25'0 0.0
2017-Nov-19 00:24N 28°09' W 015°25'0 0.0
2017-Nov-19 00:00N 28°09' W 015°25'0 0.0
2017-Nov-18 23:30N 28°09' W 015°25'0 0.0
2017-Nov-18 23:00N 28°09' W 015°25'0 0.0
2017-Nov-18 22:30N 28°09' W 015°25'0 0.0
2017-Nov-18 22:00N 28°09' W 015°25'0 0.0
2017-Nov-18 21:30N 28°09' W 015°25'0 0.0
2017-Nov-18 21:00N 28°09' W 015°25'0 0.0
2017-Nov-18 20:30N 28°09' W 015°25'0 0.0
2017-Nov-18 20:00N 28°09' W 015°25'0 0.0
2017-Nov-18 19:30N 28°09' W 015°25'0 0.8
2017-Nov-18 19:00N 28°09' W 015°25'2 4.1
2017-Nov-18 18:30N 28°07' W 015°23'510.0
2017-Nov-18 18:00N 28°11' W 015°19'3 5.7
2017-Nov-18 17:30N 28°13' W 015°17'4 7.8
2017-Nov-18 17:00N 28°17' W 015°15'1 1.7
2017-Nov-18 16:30N 28°16' W 015°16'2 3.7
2017-Nov-18 16:00N 28°14' W 015°16'4 7.4
2017-Nov-18 15:30N 28°11' W 015°18'2 3.1
2017-Nov-18 15:00N 28°11' W 015°19'510.8
2017-Nov-18 14:30N 28°16' W 015°20'611.7
2017-Nov-18 14:00N 28°10' W 015°19'4 7.5
2017-Nov-18 13:30N 28°07' W 015°20'4 8.0
2017-Nov-18 13:00N 28°08' W 015°25'1 2.5
2017-Nov-18 12:28N 28°09' W 015°25'0 0.0
2017-Nov-18 11:58N 28°09' W 015°25'0 0.0
2017-Nov-18 11:16N 28°09' W 015°25'0 0.0
2017-Nov-18 10:49N 28°09' W 015°25'0 0.0
2017-Nov-18 10:19N 28°09' W 015°25'0 0.0
2017-Nov-18 09:49N 28°09' W 015°25'0 0.0
2017-Nov-18 09:22N 28°09' W 015°25'0 0.0
2017-Nov-18 08:52N 28°09' W 015°25'0 0.0
2017-Nov-18 08:22N 28°09' W 015°25'0 0.0
2017-Nov-18 07:52N 28°09' W 015°25'0 0.0
2017-Nov-18 07:22N 28°09' W 015°25'0 0.0
2017-Nov-18 06:55N 28°09' W 015°25'0 0.0
2017-Nov-18 06:25N 28°09' W 015°25'0 0.0
2017-Nov-18 05:55N 28°09' W 015°25'0 0.0
2017-Nov-18 05:25N 28°09' W 015°25'0 0.0
2017-Nov-18 04:55N 28°09' W 015°25'0 0.0
2017-Nov-18 04:25N 28°09' W 015°25'0 0.0
2017-Nov-18 03:58N 28°09' W 015°25'0 0.0
2017-Nov-18 03:28N 28°09' W 015°25'0 0.0
2017-Nov-18 02:58N 28°09' W 015°25'0 0.0
2017-Nov-18 02:28N 28°09' W 015°25'0 0.0
2017-Nov-18 01:58N 28°09' W 015°25'0 0.0
2017-Nov-18 01:28N 28°09' W 015°25'0 0.0
2017-Nov-18 00:58N 28°09' W 015°25'0 0.0
2017-Nov-18 00:28N 28°09' W 015°25'0 0.0
2017-Nov-17 23:58N 28°09' W 015°25'0 0.0
2017-Nov-17 23:28N 28°09' W 015°25'0 0.0
2017-Nov-17 22:58N 28°09' W 015°25'0 0.0
2017-Nov-17 22:28N 28°09' W 015°25'0 0.0
2017-Nov-17 21:58N 28°09' W 015°25'0 0.0
2017-Nov-17 21:19N 28°09' W 015°25'0 0.0
2017-Nov-17 20:49N 28°09' W 015°25'0 0.0
2017-Nov-17 20:19N 28°09' W 015°25'0 0.0
2017-Nov-17 19:52N 28°09' W 015°25'0 0.0
2017-Nov-17 19:22N 28°09' W 015°25'0 0.0
2017-Nov-17 18:52N 28°09' W 015°25'0 0.0
2017-Nov-17 18:22N 28°09' W 015°25'0 0.0
2017-Nov-17 17:52N 28°09' W 015°25'0 0.0
2017-Nov-17 17:22N 28°09' W 015°25'0 0.0
2017-Nov-17 16:55N 28°09' W 015°25'0 0.0
2017-Nov-17 16:25N 28°09' W 015°25'0 0.0
2017-Nov-17 15:55N 28°09' W 015°25'0 0.0
2017-Nov-17 15:25N 28°09' W 015°25'0 0.0
2017-Nov-17 14:55N 28°09' W 015°25'0 0.0
2017-Nov-17 14:25N 28°09' W 015°25'0 0.0
2017-Nov-17 13:55N 28°09' W 015°25'0 0.0
2017-Nov-17 13:28N 28°09' W 015°25'0 0.0
2017-Nov-17 12:58N 28°09' W 015°25'0 0.0
2017-Nov-17 12:28N 28°09' W 015°25'0 0.0
2017-Nov-17 11:58N 28°09' W 015°25'0 0.0
2017-Nov-17 11:28N 28°09' W 015°25'0 0.0
2017-Nov-17 10:58N 28°09' W 015°25'0 0.0
2017-Nov-17 10:28N 28°09' W 015°25'0 0.0
2017-Nov-17 09:58N 28°09' W 015°25'0 0.0
2017-Nov-17 09:28N 28°09' W 015°25'0 0.0
2017-Nov-17 08:58N 28°09' W 015°25'0 0.0
2017-Nov-17 08:28N 28°09' W 015°25'0 0.0
2017-Nov-17 07:58N 28°09' W 015°25'0 0.0
2017-Nov-17 07:19N 28°09' W 015°25'0 0.0
2017-Nov-17 06:49N 28°09' W 015°25'0 0.0
2017-Nov-17 06:19N 28°09' W 015°25'0 0.0
2017-Nov-17 05:52N 28°09' W 015°25'0 0.0
2017-Nov-17 05:22N 28°09' W 015°25'0 0.0
2017-Nov-17 04:52N 28°09' W 015°25'0 0.0
2017-Nov-17 04:22N 28°09' W 015°25'0 0.0
2017-Nov-17 03:52N 28°09' W 015°25'0 0.0
2017-Nov-17 03:22N 28°09' W 015°25'0 0.0
2017-Nov-17 02:52N 28°09' W 015°25'0 0.0
2017-Nov-17 02:25N 28°09' W 015°25'0 0.0
2017-Nov-17 01:55N 28°09' W 015°25'0 0.0
2017-Nov-17 01:25N 28°09' W 015°25'0 0.0
2017-Nov-17 00:55N 28°09' W 015°25'0 0.0
2017-Nov-17 00:25N 28°09' W 015°25'0 0.0
2017-Nov-16 23:58N 28°09' W 015°25'0 0.0
2017-Nov-16 23:28N 28°09' W 015°25'0 0.0
2017-Nov-16 22:58N 28°09' W 015°25'0 0.4
2017-Nov-16 22:28N 28°09' W 015°25'2 3.3
2017-Nov-16 22:00N 28°07' W 015°24'1 2.4
2017-Nov-16 21:30N 28°07' W 015°23'2 3.2
2017-Nov-16 21:00N 28°08' W 015°22'3 5.7
2017-Nov-16 20:30N 28°10' W 015°19'5 9.1
2017-Nov-16 20:00N 28°14' W 015°20'0 0.5
2017-Nov-16 19:30N 28°14' W 015°20'4 8.2
2017-Nov-16 19:00N 28°10' W 015°20'2 4.2
2017-Nov-16 18:30N 28°12' W 015°20'4 7.1
2017-Nov-16 18:00N 28°16' W 015°20'1 2.7
2017-Nov-16 17:30N 28°14' W 015°20'4 7.7
2017-Nov-16 17:00N 28°11' W 015°20'1 2.5
2017-Nov-16 16:30N 28°12' W 015°20'3 6.9
2017-Nov-16 16:00N 28°09' W 015°22'2 4.6
2017-Nov-16 15:30N 28°07' W 015°24'0 0.9
2017-Nov-16 14:58N 28°07' W 015°25'0 0.0
2017-Nov-16 14:28N 28°08' W 015°25'1 2.5
2017-Nov-16 14:00N 28°09' W 015°25'0 0.7
2017-Nov-16 13:25N 28°09' W 015°25'0 0.0
2017-Nov-16 12:55N 28°09' W 015°25'0 0.0
2017-Nov-16 12:25N 28°09' W 015°25'0 0.0
2017-Nov-16 11:58N 28°09' W 015°25'0 0.0
2017-Nov-16 11:28N 28°09' W 015°25'0 0.0
2017-Nov-16 10:58N 28°09' W 015°25'0 0.0
2017-Nov-16 10:28N 28°09' W 015°25'0 0.0
2017-Nov-16 09:58N 28°09' W 015°25'0 0.0
2017-Nov-16 09:28N 28°09' W 015°25'0 0.0
2017-Nov-16 08:58N 28°09' W 015°25'0 0.0
2017-Nov-16 08:28N 28°09' W 015°25'0 0.0
2017-Nov-16 07:58N 28°09' W 015°25'0 0.0
2017-Nov-16 07:28N 28°09' W 015°25'0 0.0
2017-Nov-16 06:58N 28°09' W 015°25'0 0.0
2017-Nov-16 06:28N 28°09' W 015°25'0 0.0
2017-Nov-16 05:58N 28°09' W 015°25'0 0.0
2017-Nov-16 05:19N 28°09' W 015°25'0 0.0
2017-Nov-16 04:49N 28°09' W 015°25'0 0.0
2017-Nov-16 04:19N 28°09' W 015°25'0 0.0
2017-Nov-16 03:52N 28°09' W 015°25'0 0.0
2017-Nov-16 03:22N 28°09' W 015°25'0 0.0
2017-Nov-16 02:52N 28°09' W 015°25'0 0.0
2017-Nov-16 02:07N 28°09' W 015°25'0 0.0
2017-Nov-16 01:52N 28°09' W 015°25'0 0.0
2017-Nov-16 01:22N 28°09' W 015°25'0 0.0
2017-Nov-16 00:55N 28°09' W 015°25'0 0.0
2017-Nov-16 00:25N 28°09' W 015°25'0 0.0
2017-Nov-15 23:55N 28°09' W 015°25'0 0.0
2017-Nov-15 23:25N 28°09' W 015°25'0 0.7
2017-Nov-15 23:00N 28°09' W 015°25'0 0.8
2017-Nov-15 22:24N 28°09' W 015°25'0 0.0
2017-Nov-15 21:54N 28°09' W 015°25'0 0.0
2017-Nov-15 21:24N 28°09' W 015°25'0 0.0
2017-Nov-15 20:54N 28°09' W 015°25'0 0.0
2017-Nov-15 20:24N 28°09' W 015°25'0 0.0
2017-Nov-15 19:57N 28°09' W 015°25'0 0.0
2017-Nov-15 19:27N 28°09' W 015°25'0 0.0
2017-Nov-15 18:57N 28°09' W 015°25'0 0.0
2017-Nov-15 18:27N 28°09' W 015°25'0 0.0
2017-Nov-15 17:54N 28°09' W 015°25'0 0.0
2017-Nov-15 17:27N 28°09' W 015°25'0 0.0
2017-Nov-15 17:00N 28°09' W 015°25'0 0.0
2017-Nov-15 16:30N 28°09' W 015°25'0 0.0
2017-Nov-15 16:00N 28°09' W 015°25'0 0.0
2017-Nov-15 15:30N 28°09' W 015°25'0 0.0
2017-Nov-15 15:00N 28°09' W 015°25'0 0.0
2017-Nov-15 14:30N 28°09' W 015°25'0 0.0
2017-Nov-15 14:00N 28°09' W 015°25'0 0.0
2017-Nov-15 13:30N 28°09' W 015°25'0 0.0
2017-Nov-15 13:00N 28°09' W 015°25'0 0.0
2017-Nov-15 12:30N 28°09' W 015°25'0 0.0
2017-Nov-15 12:00N 28°09' W 015°25'0 0.0
2017-Nov-15 11:30N 28°09' W 015°25'0 0.0
2017-Nov-15 11:00N 28°09' W 015°25'0 0.0
2017-Nov-15 10:30N 28°09' W 015°25'0 0.0
2017-Nov-15 09:51N 28°09' W 015°25'0 0.0
2017-Nov-15 09:03N 28°09' W 015°25'0 0.0
2017-Nov-15 08:48N 28°09' W 015°25'0 0.0
2017-Nov-15 08:21N 28°09' W 015°25'0 0.0
2017-Nov-15 07:54N 28°09' W 015°25'  
Track history (hours):
 
Tides and Currents Weather Stations Pressure Air Temp Water Temp Dewpoint Dewpoint Depression Visibility Wind Speed Wind Dir Waves Ship Positions

Saga Sea

Last reported at 2017-Nov-25 07:33 UTC. Time now 2018-Jan-23 23:38 UTC.
Position N 27°48' W 015°17'.
Warning: this ship's position is 59 days out of date.

Length 92 m; draft 8.2 m.

Type: Fishing. MMSI: 259539000.

Date/timePositionNaut miles runAvg speedWind from/ knotsBaromVisibWave heightAir tempDewpointWater temp
2017-Nov-25 07:33N 27°48' W 015°17'112.9
2017-Nov-25 07:27N 27°49' W 015°16'612.6
2017-Nov-25 07:00N 27°55' W 015°16'612.4
2017-Nov-25 06:30N 28°01' W 015°17'612.2
2017-Nov-25 06:00N 28°06' W 015°21'2 3.8
2017-Nov-25 05:31N 28°07' W 015°22'1 1.6
2017-Nov-25 05:00N 28°07' W 015°21'3 6.3
2017-Nov-25 04:30N 28°10' W 015°20'612.1
2017-Nov-25 04:01N 28°16' W 015°19'0 0.5
2017-Nov-25 03:29N 28°16' W 015°20'0 0.1
2017-Nov-25 03:00N 28°16' W 015°20'0 1.0
2017-Nov-25 02:30N 28°16' W 015°20'612.1
2017-Nov-25 02:01N 28°10' W 015°20'4 8.3
2017-Nov-25 01:30N 28°08' W 015°25'1 2.5
2017-Nov-25 00:59N 28°09' W 015°25'0 0.0
2017-Nov-25 00:29N 28°09' W 015°25'0 0.0
2017-Nov-24 23:59N 28°09' W 015°25'0 0.0
2017-Nov-24 23:17N 28°09' W 015°25'0 0.0
2017-Nov-24 22:59N 28°09' W 015°25'0 0.0
2017-Nov-24 22:29N 28°09' W 015°25'0 0.0
2017-Nov-24 21:59N 28°09' W 015°25'0 0.0
2017-Nov-24 21:20N 28°09' W 015°25'0 0.0
2017-Nov-24 20:50N 28°09' W 015°25'0 0.0
2017-Nov-24 20:20N 28°09' W 015°25'0 0.0
2017-Nov-24 19:50N 28°09' W 015°25'0 0.0
2017-Nov-24 19:23N 28°09' W 015°25'0 0.0
2017-Nov-24 18:53N 28°09' W 015°25'0 0.0
2017-Nov-24 18:30N 28°09' W 015°25'0 0.0
2017-Nov-24 18:00N 28°09' W 015°25'0 0.0
2017-Nov-24 17:30N 28°09' W 015°25'0 0.0
2017-Nov-24 17:00N 28°09' W 015°25'0 0.0
2017-Nov-24 16:30N 28°09' W 015°25'0 0.0
2017-Nov-24 16:00N 28°09' W 015°25'0 0.0
2017-Nov-24 15:30N 28°09' W 015°25'0 0.0
2017-Nov-24 15:00N 28°09' W 015°25'0 0.0
2017-Nov-24 14:30N 28°09' W 015°25'0 0.0
2017-Nov-24 14:00N 28°09' W 015°25'0 0.0
2017-Nov-24 13:31N 28°09' W 015°25'0 0.0
2017-Nov-24 13:00N 28°09' W 015°25'0 0.0
2017-Nov-24 12:30N 28°09' W 015°25'0 0.0
2017-Nov-24 12:00N 28°09' W 015°25'0 0.0
2017-Nov-24 11:30N 28°09' W 015°25'0 0.0
2017-Nov-24 11:00N 28°09' W 015°25'0 0.0
2017-Nov-24 10:30N 28°09' W 015°25'0 0.0
2017-Nov-24 10:00N 28°09' W 015°25'0 0.0
2017-Nov-24 09:30N 28°09' W 015°25'0 0.1
2017-Nov-24 09:01N 28°09' W 015°25'2 3.0
2017-Nov-24 08:30N 28°07' W 015°24'2 4.9
2017-Nov-24 08:00N 28°07' W 015°22'1 1.9
2017-Nov-24 07:30N 28°07' W 015°21'0 1.0
2017-Nov-24 07:00N 28°07' W 015°20'0 0.6
2017-Nov-24 06:30N 28°07' W 015°20'1 1.2
2017-Nov-24 06:00N 28°07' W 015°20'510.0
2017-Nov-24 05:30N 28°09' W 015°14'4 8.3
2017-Nov-24 05:00N 28°13' W 015°13'2 3.2
2017-Nov-24 04:30N 28°14' W 015°13'4 7.2
2017-Nov-24 04:00N 28°15' W 015°17'0 0.5
2017-Nov-24 03:30N 28°15' W 015°17'0 1.0
2017-Nov-24 03:00N 28°15' W 015°18'1 1.1
2017-Nov-24 02:30N 28°15' W 015°19'0 1.0
2017-Nov-24 02:00N 28°15' W 015°19'1 1.4
2017-Nov-24 01:30N 28°16' W 015°20'5 9.7
2017-Nov-24 01:00N 28°21' W 015°20'2 4.4
2017-Nov-24 00:30N 28°22' W 015°18'612.6
2017-Nov-24 00:00N 28°16' W 015°18'612.6
2017-Nov-23 23:30N 28°09' W 015°19'510.8
2017-Nov-23 23:00N 28°07' W 015°24'2 4.0
2017-Nov-23 22:30N 28°09' W 015°25'0 0.1
2017-Nov-23 22:00N 28°09' W 015°25'0 0.0
2017-Nov-23 21:30N 28°09' W 015°25'0 0.0
2017-Nov-23 21:00N 28°09' W 015°25'0 0.0
2017-Nov-23 20:30N 28°09' W 015°25'0 0.0
2017-Nov-23 20:00N 28°09' W 015°25'0 0.0
2017-Nov-23 19:30N 28°09' W 015°25'0 0.0
2017-Nov-23 19:00N 28°09' W 015°25'0 0.0
2017-Nov-23 18:30N 28°09' W 015°25'0 0.0
2017-Nov-23 18:00N 28°09' W 015°25'0 0.0
2017-Nov-23 17:30N 28°09' W 015°25'0 0.0
2017-Nov-23 17:00N 28°09' W 015°25'0 0.0
2017-Nov-23 16:30N 28°09' W 015°25'0 0.0
2017-Nov-23 16:00N 28°09' W 015°25'0 0.0
2017-Nov-23 15:30N 28°09' W 015°25'0 0.0
2017-Nov-23 15:00N 28°09' W 015°25'0 0.0
2017-Nov-23 14:30N 28°09' W 015°25'0 0.0
2017-Nov-23 14:00N 28°09' W 015°25'0 0.0
2017-Nov-23 13:30N 28°09' W 015°25'0 0.0
2017-Nov-23 13:00N 28°09' W 015°25'0 0.0
2017-Nov-23 12:30N 28°09' W 015°25'0 0.0
2017-Nov-23 12:00N 28°09' W 015°25'0 0.0
2017-Nov-23 11:30N 28°09' W 015°25'0 0.0
2017-Nov-23 11:00N 28°09' W 015°25'0 0.0
2017-Nov-23 10:30N 28°09' W 015°25'0 0.0
2017-Nov-23 10:00N 28°09' W 015°25'0 0.0
2017-Nov-23 09:30N 28°09' W 015°25'0 0.0
2017-Nov-23 09:00N 28°09' W 015°25'0 0.0
2017-Nov-23 08:30N 28°09' W 015°25'0 0.0
2017-Nov-23 08:00N 28°09' W 015°25'0 0.0
2017-Nov-23 07:30N 28°09' W 015°25'0 0.0
2017-Nov-23 07:00N 28°09' W 015°25'0 0.0
2017-Nov-23 06:30N 28°09' W 015°25'0 0.0
2017-Nov-23 06:00N 28°09' W 015°25'0 0.0
2017-Nov-23 05:30N 28°09' W 015°25'0 0.0
2017-Nov-23 05:00N 28°09' W 015°25'0 0.0
2017-Nov-23 04:30N 28°09' W 015°25'0 0.0
2017-Nov-23 04:00N 28°09' W 015°25'0 0.0
2017-Nov-23 03:30N 28°09' W 015°25'0 0.0
2017-Nov-23 03:00N 28°09' W 015°25'0 0.0
2017-Nov-23 02:30N 28°09' W 015°25'0 0.0
2017-Nov-23 02:00N 28°09' W 015°25'0 0.0
2017-Nov-23 01:30N 28°09' W 015°25'0 0.0
2017-Nov-23 01:00N 28°09' W 015°25'0 0.0
2017-Nov-23 00:30N 28°09' W 015°25'0 0.0
2017-Nov-23 00:00N 28°09' W 015°25'0 0.0
2017-Nov-22 23:30N 28°09' W 015°25'0 0.0
2017-Nov-22 23:00N 28°09' W 015°25'0 0.0
2017-Nov-22 22:30N 28°09' W 015°25'0 0.0
2017-Nov-22 22:00N 28°09' W 015°25'0 0.0
2017-Nov-22 21:30N 28°09' W 015°25'0 0.0
2017-Nov-22 21:00N 28°09' W 015°25'0 0.0
2017-Nov-22 20:30N 28°09' W 015°25'0 0.0
2017-Nov-22 20:00N 28°09' W 015°25'0 0.0
2017-Nov-22 19:30N 28°09' W 015°25'  
2017-Nov-20 00:30N 28°09' W 015°25'0 0.0
2017-Nov-20 00:00N 28°09' W 015°25'0 0.0
2017-Nov-19 23:30N 28°09' W 015°25'0 0.0
2017-Nov-19 23:00N 28°09' W 015°25'0 0.0
2017-Nov-19 22:30N 28°09' W 015°25'0 0.0
2017-Nov-19 22:00N 28°09' W 015°25'0 0.0
2017-Nov-19 21:30N 28°09' W 015°25'0 0.0
2017-Nov-19 21:00N 28°09' W 015°25'0 0.0
2017-Nov-19 20:30N 28°09' W 015°25'0 0.0
2017-Nov-19 19:51N 28°09' W 015°25'0 0.0
2017-Nov-19 19:21N 28°09' W 015°25'0 0.0
2017-Nov-19 18:54N 28°09' W 015°25'0 0.0
2017-Nov-19 18:24N 28°09' W 015°25'0 0.0
2017-Nov-19 17:54N 28°09' W 015°25'0 0.0
2017-Nov-19 17:24N 28°09' W 015°25'0 0.0
2017-Nov-19 16:54N 28°09' W 015°25'0 0.0
2017-Nov-19 16:24N 28°09' W 015°25'0 0.0
2017-Nov-19 15:57N 28°09' W 015°25'0 0.0
2017-Nov-19 15:27N 28°09' W 015°25'0 0.0
2017-Nov-19 14:57N 28°09' W 015°25'0 0.0
2017-Nov-19 14:27N 28°09' W 015°25'0 0.0
2017-Nov-19 13:42N 28°09' W 015°25'0 0.0
2017-Nov-19 13:27N 28°09' W 015°25'0 0.0
2017-Nov-19 13:00N 28°09' W 015°25'0 0.0
2017-Nov-19 12:30N 28°09' W 015°25'0 0.0
2017-Nov-19 12:00N 28°09' W 015°25'0 0.0
2017-Nov-19 11:30N 28°09' W 015°25'0 0.0
2017-Nov-19 11:00N 28°09' W 015°25'0 0.0
2017-Nov-19 10:30N 28°09' W 015°25'0 0.0
2017-Nov-19 10:00N 28°09' W 015°25'0 0.0
2017-Nov-19 09:30N 28°09' W 015°25'0 0.0
2017-Nov-19 08:48N 28°09' W 015°25'0 0.0
2017-Nov-19 08:30N 28°09' W 015°25'0 0.0
2017-Nov-19 08:00N 28°09' W 015°25'0 0.0
2017-Nov-19 07:30N 28°09' W 015°25'0 0.0
2017-Nov-19 07:00N 28°09' W 015°25'0 0.0
2017-Nov-19 06:21N 28°09' W 015°25'0 0.0
2017-Nov-19 05:51N 28°09' W 015°25'0 0.0
2017-Nov-19 05:24N 28°09' W 015°25'0 0.0
2017-Nov-19 04:54N 28°09' W 015°25'0 0.0
2017-Nov-19 04:24N 28°09' W 015°25'0 0.0
2017-Nov-19 03:54N 28°09' W 015°25'0 0.0
2017-Nov-19 03:24N 28°09' W 015°25'0 0.0
2017-Nov-19 02:54N 28°09' W 015°25'0 0.0
2017-Nov-19 02:24N 28°09' W 015°25'0 0.0
2017-Nov-19 01:57N 28°09' W 015°25'0 0.0
2017-Nov-19 01:27N 28°09' W 015°25'0 0.0
2017-Nov-19 00:57N 28°09' W 015°25'0 0.0
2017-Nov-19 00:24N 28°09' W 015°25'0 0.0
2017-Nov-19 00:00N 28°09' W 015°25'0 0.0
2017-Nov-18 23:30N 28°09' W 015°25'0 0.0
2017-Nov-18 23:00N 28°09' W 015°25'0 0.0
2017-Nov-18 22:30N 28°09' W 015°25'0 0.0
2017-Nov-18 22:00N 28°09' W 015°25'0 0.0
2017-Nov-18 21:30N 28°09' W 015°25'0 0.0
2017-Nov-18 21:00N 28°09' W 015°25'0 0.0
2017-Nov-18 20:30N 28°09' W 015°25'0 0.0
2017-Nov-18 20:00N 28°09' W 015°25'0 0.0
2017-Nov-18 19:30N 28°09' W 015°25'0 0.8
2017-Nov-18 19:00N 28°09' W 015°25'2 4.1
2017-Nov-18 18:30N 28°07' W 015°23'510.0
2017-Nov-18 18:00N 28°11' W 015°19'3 5.7
2017-Nov-18 17:30N 28°13' W 015°17'4 7.8
2017-Nov-18 17:00N 28°17' W 015°15'1 1.7
2017-Nov-18 16:30N 28°16' W 015°16'2 3.7
2017-Nov-18 16:00N 28°14' W 015°16'4 7.4
2017-Nov-18 15:30N 28°11' W 015°18'2 3.1
2017-Nov-18 15:00N 28°11' W 015°19'510.8
2017-Nov-18 14:30N 28°16' W 015°20'611.7
2017-Nov-18 14:00N 28°10' W 015°19'4 7.5
2017-Nov-18 13:30N 28°07' W 015°20'4 8.0
2017-Nov-18 13:00N 28°08' W 015°25'1 2.5
2017-Nov-18 12:28N 28°09' W 015°25'0 0.0
2017-Nov-18 11:58N 28°09' W 015°25'0 0.0
2017-Nov-18 11:16N 28°09' W 015°25'0 0.0
2017-Nov-18 10:49N 28°09' W 015°25'0 0.0
2017-Nov-18 10:19N 28°09' W 015°25'0 0.0
2017-Nov-18 09:49N 28°09' W 015°25'0 0.0
2017-Nov-18 09:22N 28°09' W 015°25'0 0.0
2017-Nov-18 08:52N 28°09' W 015°25'0 0.0
2017-Nov-18 08:22N 28°09' W 015°25'0 0.0
2017-Nov-18 07:52N 28°09' W 015°25'0 0.0
2017-Nov-18 07:22N 28°09' W 015°25'0 0.0
2017-Nov-18 06:55N 28°09' W 015°25'0 0.0
2017-Nov-18 06:25N 28°09' W 015°25'0 0.0
2017-Nov-18 05:55N 28°09' W 015°25'0 0.0
2017-Nov-18 05:25N 28°09' W 015°25'0 0.0
2017-Nov-18 04:55N 28°09' W 015°25'0 0.0
2017-Nov-18 04:25N 28°09' W 015°25'0 0.0
2017-Nov-18 03:58N 28°09' W 015°25'0 0.0
2017-Nov-18 03:28N 28°09' W 015°25'0 0.0
2017-Nov-18 02:58N 28°09' W 015°25'0 0.0
2017-Nov-18 02:28N 28°09' W 015°25'0 0.0
2017-Nov-18 01:58N 28°09' W 015°25'0 0.0
2017-Nov-18 01:28N 28°09' W 015°25'0 0.0
2017-Nov-18 00:58N 28°09' W 015°25'0 0.0
2017-Nov-18 00:28N 28°09' W 015°25'0 0.0
2017-Nov-17 23:58N 28°09' W 015°25'0 0.0
2017-Nov-17 23:28N 28°09' W 015°25'0 0.0
2017-Nov-17 22:58N 28°09' W 015°25'0 0.0
2017-Nov-17 22:28N 28°09' W 015°25'0 0.0
2017-Nov-17 21:58N 28°09' W 015°25'0 0.0
2017-Nov-17 21:19N 28°09' W 015°25'0 0.0
2017-Nov-17 20:49N 28°09' W 015°25'0 0.0
2017-Nov-17 20:19N 28°09' W 015°25'0 0.0
2017-Nov-17 19:52N 28°09' W 015°25'0 0.0
2017-Nov-17 19:22N 28°09' W 015°25'0 0.0
2017-Nov-17 18:52N 28°09' W 015°25'0 0.0
2017-Nov-17 18:22N 28°09' W 015°25'0 0.0
2017-Nov-17 17:52N 28°09' W 015°25'0 0.0
2017-Nov-17 17:22N 28°09' W 015°25'0 0.0
2017-Nov-17 16:55N 28°09' W 015°25'0 0.0
2017-Nov-17 16:25N 28°09' W 015°25'0 0.0
2017-Nov-17 15:55N 28°09' W 015°25'0 0.0
2017-Nov-17 15:25N 28°09' W 015°25'0 0.0
2017-Nov-17 14:55N 28°09' W 015°25'0 0.0
2017-Nov-17 14:25N 28°09' W 015°25'0 0.0
2017-Nov-17 13:55N 28°09' W 015°25'0 0.0
2017-Nov-17 13:28N 28°09' W 015°25'0 0.0
2017-Nov-17 12:58N 28°09' W 015°25'0 0.0
2017-Nov-17 12:28N 28°09' W 015°25'0 0.0
2017-Nov-17 11:58N 28°09' W 015°25'0 0.0
2017-Nov-17 11:28N 28°09' W 015°25'0 0.0
2017-Nov-17 10:58N 28°09' W 015°25'0 0.0
2017-Nov-17 10:28N 28°09' W 015°25'0 0.0
2017-Nov-17 09:58N 28°09' W 015°25'0 0.0
2017-Nov-17 09:28N 28°09' W 015°25'0 0.0
2017-Nov-17 08:58N 28°09' W 015°25'0 0.0
2017-Nov-17 08:28N 28°09' W 015°25'0 0.0
2017-Nov-17 07:58N 28°09' W 015°25'0 0.0
2017-Nov-17 07:19N 28°09' W 015°25'0 0.0
2017-Nov-17 06:49N 28°09' W 015°25'0 0.0
2017-Nov-17 06:19N 28°09' W 015°25'0 0.0
2017-Nov-17 05:52N 28°09' W 015°25'0 0.0
2017-Nov-17 05:22N 28°09' W 015°25'0 0.0
2017-Nov-17 04:52N 28°09' W 015°25'0 0.0
2017-Nov-17 04:22N 28°09' W 015°25'0 0.0
2017-Nov-17 03:52N 28°09' W 015°25'0 0.0
2017-Nov-17 03:22N 28°09' W 015°25'0 0.0
2017-Nov-17 02:52N 28°09' W 015°25'0 0.0
2017-Nov-17 02:25N 28°09' W 015°25'0 0.0
2017-Nov-17 01:55N 28°09' W 015°25'0 0.0
2017-Nov-17 01:25N 28°09' W 015°25'0 0.0
2017-Nov-17 00:55N 28°09' W 015°25'0 0.0
2017-Nov-17 00:25N 28°09' W 015°25'0 0.0
2017-Nov-16 23:58N 28°09' W 015°25'0 0.0
2017-Nov-16 23:28N 28°09' W 015°25'0 0.0
2017-Nov-16 22:58N 28°09' W 015°25'0 0.4
2017-Nov-16 22:28N 28°09' W 015°25'2 3.3
2017-Nov-16 22:00N 28°07' W 015°24'1 2.4
2017-Nov-16 21:30N 28°07' W 015°23'2 3.2
2017-Nov-16 21:00N 28°08' W 015°22'3 5.7
2017-Nov-16 20:30N 28°10' W 015°19'5 9.1
2017-Nov-16 20:00N 28°14' W 015°20'0 0.5
2017-Nov-16 19:30N 28°14' W 015°20'4 8.2
2017-Nov-16 19:00N 28°10' W 015°20'2 4.2
2017-Nov-16 18:30N 28°12' W 015°20'4 7.1
2017-Nov-16 18:00N 28°16' W 015°20'1 2.7
2017-Nov-16 17:30N 28°14' W 015°20'4 7.7
2017-Nov-16 17:00N 28°11' W 015°20'1 2.5
2017-Nov-16 16:30N 28°12' W 015°20'3 6.9
2017-Nov-16 16:00N 28°09' W 015°22'2 4.6
2017-Nov-16 15:30N 28°07' W 015°24'0 0.9
2017-Nov-16 14:58N 28°07' W 015°25'0 0.0
2017-Nov-16 14:28N 28°08' W 015°25'1 2.5
2017-Nov-16 14:00N 28°09' W 015°25'0 0.7
2017-Nov-16 13:25N 28°09' W 015°25'0 0.0
2017-Nov-16 12:55N 28°09' W 015°25'0 0.0
2017-Nov-16 12:25N 28°09' W 015°25'0 0.0
2017-Nov-16 11:58N 28°09' W 015°25'0 0.0
2017-Nov-16 11:28N 28°09' W 015°25'0 0.0
2017-Nov-16 10:58N 28°09' W 015°25'0 0.0
2017-Nov-16 10:28N 28°09' W 015°25'0 0.0
2017-Nov-16 09:58N 28°09' W 015°25'0 0.0
2017-Nov-16 09:28N 28°09' W 015°25'0 0.0
2017-Nov-16 08:58N 28°09' W 015°25'0 0.0
2017-Nov-16 08:28N 28°09' W 015°25'0 0.0
2017-Nov-16 07:58N 28°09' W 015°25'0 0.0
2017-Nov-16 07:28N 28°09' W 015°25'0 0.0
2017-Nov-16 06:58N 28°09' W 015°25'0 0.0
2017-Nov-16 06:28N 28°09' W 015°25'0 0.0
2017-Nov-16 05:58N 28°09' W 015°25'0 0.0
2017-Nov-16 05:19N 28°09' W 015°25'0 0.0
2017-Nov-16 04:49N 28°09' W 015°25'0 0.0
2017-Nov-16 04:19N 28°09' W 015°25'0 0.0
2017-Nov-16 03:52N 28°09' W 015°25'0 0.0
2017-Nov-16 03:22N 28°09' W 015°25'0 0.0
2017-Nov-16 02:52N 28°09' W 015°25'0 0.0
2017-Nov-16 02:07N 28°09' W 015°25'0 0.0
2017-Nov-16 01:52N 28°09' W 015°25'0 0.0
2017-Nov-16 01:22N 28°09' W 015°25'0 0.0
2017-Nov-16 00:55N 28°09' W 015°25'0 0.0
2017-Nov-16 00:25N 28°09' W 015°25'0 0.0
2017-Nov-15 23:55N 28°09' W 015°25'0 0.0
2017-Nov-15 23:25N 28°09' W 015°25'0 0.7
2017-Nov-15 23:00N 28°09' W 015°25'0 0.8
2017-Nov-15 22:24N 28°09' W 015°25'0 0.0
2017-Nov-15 21:54N 28°09' W 015°25'0 0.0
2017-Nov-15 21:24N 28°09' W 015°25'0 0.0
2017-Nov-15 20:54N 28°09' W 015°25'0 0.0
2017-Nov-15 20:24N 28°09' W 015°25'0 0.0
2017-Nov-15 19:57N 28°09' W 015°25'0 0.0
2017-Nov-15 19:27N 28°09' W 015°25'0 0.0
2017-Nov-15 18:57N 28°09' W 015°25'0 0.0
2017-Nov-15 18:27N 28°09' W 015°25'0 0.0
2017-Nov-15 17:54N 28°09' W 015°25'0 0.0
2017-Nov-15 17:27N 28°09' W 015°25'0 0.0
2017-Nov-15 17:00N 28°09' W 015°25'0 0.0
2017-Nov-15 16:30N 28°09' W 015°25'0 0.0
2017-Nov-15 16:00N 28°09' W 015°25'0 0.0
2017-Nov-15 15:30N 28°09' W 015°25'0 0.0
2017-Nov-15 15:00N 28°09' W 015°25'0 0.0
2017-Nov-15 14:30N 28°09' W 015°25'0 0.0
2017-Nov-15 14:00N 28°09' W 015°25'0 0.0
2017-Nov-15 13:30N 28°09' W 015°25'0 0.0
2017-Nov-15 13:00N 28°09' W 015°25'0 0.0
2017-Nov-15 12:30N 28°09' W 015°25'0 0.0
2017-Nov-15 12:00N 28°09' W 015°25'0 0.0
2017-Nov-15 11:30N 28°09' W 015°25'0 0.0
2017-Nov-15 11:00N 28°09' W 015°25'0 0.0
2017-Nov-15 10:30N 28°09' W 015°25'0 0.0
2017-Nov-15 09:51N 28°09' W 015°25'0 0.0
2017-Nov-15 09:03N 28°09' W 015°25'0 0.0
2017-Nov-15 08:48N 28°09' W 015°25'0 0.0
2017-Nov-15 08:21N 28°09' W 015°25'0 0.0
2017-Nov-15 07:54N 28°09' W 015°25'  

Dump ship's entire track history